createdAt,value
2019-01-15T00:00:07.338Z,28.6
2019-01-15T00:00:57.668Z,28.6
2019-01-15T00:01:47.948Z,28.7
2019-01-15T00:02:37.443Z,28.8
2019-01-15T00:03:27.783Z,28.8
2019-01-15T00:04:17.898Z,28.8
2019-01-15T00:05:07.741Z,28.8
2019-01-15T00:05:57.938Z,28.8
2019-01-15T00:06:48.005Z,28.8
2019-01-15T00:07:37.740Z,28.7
2019-01-15T00:08:27.867Z,28.6
2019-01-15T00:09:17.945Z,28.4
2019-01-15T00:10:07.177Z,28.3
2019-01-15T00:10:57.747Z,28.2
2019-01-15T00:11:48.665Z,28
2019-01-15T00:12:38.375Z,27.8
2019-01-15T00:13:27.897Z,27.5
2019-01-15T00:14:17.712Z,27.5
2019-01-15T00:15:08.370Z,27.3
2019-01-15T00:15:58.652Z,27.3
2019-01-15T00:16:48.955Z,27.3
2019-01-15T00:17:38.445Z,27.2
2019-01-15T00:18:28.549Z,27.3
2019-01-15T00:19:18.551Z,27.4
2019-01-15T00:20:09.232Z,27.5
2019-01-15T00:20:58.993Z,27.6
2019-01-15T00:21:49.027Z,27.8
2019-01-15T00:22:38.809Z,27.9
2019-01-15T00:23:29.182Z,27.9
2019-01-15T00:24:18.919Z,28.1
2019-01-15T00:25:09.637Z,28.1
2019-01-15T00:25:58.487Z,28.2
2019-01-15T00:26:49.064Z,28.3
2019-01-15T00:27:39.817Z,28.3
2019-01-15T00:28:29.179Z,28.4
2019-01-15T00:29:19.579Z,28.4
2019-01-15T00:30:09.129Z,28.5
2019-01-15T00:30:59.344Z,28.6
2019-01-15T00:31:49.629Z,28.6
2019-01-15T00:32:40.019Z,28.6
2019-01-15T00:33:29.836Z,28.7
2019-01-15T00:34:19.306Z,28.7
2019-01-15T00:35:09.328Z,28.8
2019-01-15T00:35:59.681Z,28.8
2019-01-15T00:36:51.441Z,28.8
2019-01-15T00:37:39.863Z,28.6
2019-01-15T00:38:29.874Z,28.4
2019-01-15T00:39:20.488Z,28.4
2019-01-15T00:40:10.392Z,28.3
2019-01-15T00:40:59.465Z,28.3
2019-01-15T00:41:49.253Z,28.1
2019-01-15T00:42:40.419Z,27.9
2019-01-15T00:43:32.511Z,27.6
2019-01-15T00:44:19.706Z,27.7
2019-01-15T00:46:00.448Z,27.9
2019-01-15T00:46:50.981Z,28.1
2019-01-15T00:47:40.749Z,28.2
2019-01-15T00:48:31.086Z,28.3
2019-01-15T00:49:20.398Z,28.3
2019-01-15T00:50:10.818Z,28.4
2019-01-15T00:51:00.703Z,28.4
2019-01-15T00:51:51.360Z,28.5
2019-01-15T00:52:41.415Z,28.6
2019-01-15T00:53:31.173Z,28.6
2019-01-15T00:54:21.010Z,28.7
2019-01-15T00:55:10.995Z,28.8
2019-01-15T00:56:00.752Z,28.8
2019-01-15T00:56:51.365Z,28.8
2019-01-15T00:57:41.187Z,28.9
2019-01-15T00:58:30.922Z,28.9
2019-01-15T00:59:21.285Z,28.9
2019-01-15T01:00:10.797Z,28.8
2019-01-15T01:01:01.112Z,28.8
2019-01-15T01:01:51.524Z,28.6
2019-01-15T01:02:41.275Z,28.5
2019-01-15T01:03:32.094Z,28.4
2019-01-15T01:04:21.350Z,28.3
2019-01-15T01:05:12.014Z,28.1
2019-01-15T01:06:02.342Z,27.9
2019-01-15T01:06:51.837Z,27.6
2019-01-15T01:07:42.448Z,27.5
2019-01-15T01:08:31.139Z,27.4
2019-01-15T01:09:21.946Z,27.3
2019-01-15T01:10:11.284Z,27.3
2019-01-15T01:11:02.356Z,27.3
2019-01-15T01:11:52.737Z,27.3
2019-01-15T01:12:42.443Z,27.3
2019-01-15T01:13:32.559Z,27.4
2019-01-15T01:14:22.624Z,27.6
2019-01-15T01:15:12.359Z,27.8
2019-01-15T01:16:02.121Z,27.9
2019-01-15T01:16:52.491Z,27.9
2019-01-15T01:17:42.803Z,28.1
2019-01-15T01:18:32.595Z,28.1
2019-01-15T01:19:22.891Z,28.2
2019-01-15T01:20:12.933Z,28.3
2019-01-15T01:21:02.764Z,28.3
2019-01-15T01:21:52.268Z,28.4
2019-01-15T01:22:42.573Z,28.4
2019-01-15T01:23:32.906Z,28.5
2019-01-15T01:24:23.256Z,28.6
2019-01-15T01:25:13.314Z,28.6
2019-01-15T01:26:03.680Z,28.6
2019-01-15T01:26:53.681Z,28.7
2019-01-15T01:27:43.171Z,28.8
2019-01-15T01:28:33.288Z,28.8
2019-01-15T01:29:23.280Z,28.8
2019-01-15T01:30:13.630Z,28.9
2019-01-15T01:31:03.213Z,28.9
2019-01-15T01:31:53.738Z,28.9
2019-01-15T01:32:43.820Z,28.9
2019-01-15T01:33:33.302Z,28.9
2019-01-15T01:34:23.664Z,28.8
2019-01-15T01:35:13.217Z,28.7
2019-01-15T01:36:03.822Z,28.6
2019-01-15T01:36:53.809Z,28.4
2019-01-15T01:37:44.152Z,28.3
2019-01-15T01:38:33.350Z,28.2
2019-01-15T01:39:23.208Z,27.9
2019-01-15T01:40:13.549Z,27.7
2019-01-15T01:41:03.072Z,27.5
2019-01-15T01:41:53.232Z,27.4
2019-01-15T01:42:43.917Z,27.3
2019-01-15T01:43:34.633Z,27.3
2019-01-15T01:44:24.602Z,27.3
2019-01-15T01:45:14.928Z,27.3
2019-01-15T01:46:03.877Z,27.3
2019-01-15T01:46:53.935Z,27.4
2019-01-15T01:47:44.539Z,27.6
2019-01-15T01:48:34.579Z,27.8
2019-01-15T01:49:24.666Z,27.9
2019-01-15T01:50:14.958Z,27.9
2019-01-15T01:51:04.272Z,28
2019-01-15T01:51:55.139Z,28.1
2019-01-15T01:52:43.786Z,28.2
2019-01-15T01:53:35.004Z,28.3
2019-01-15T01:54:24.709Z,28.3
2019-01-15T01:55:15.311Z,28.4
2019-01-15T01:56:04.895Z,28.4
2019-01-15T01:56:55.496Z,28.5
2019-01-15T01:57:45.489Z,28.6
2019-01-15T01:58:35.329Z,28.6
2019-01-15T01:59:25.100Z,28.6
2019-01-15T02:00:15.943Z,28.7
2019-01-15T02:01:04.906Z,28.7
2019-01-15T02:01:55.848Z,28.8
2019-01-15T02:02:45.860Z,28.8
2019-01-15T02:03:35.608Z,28.8
2019-01-15T02:04:25.995Z,28.8
2019-01-15T02:05:15.485Z,28.9
2019-01-15T02:06:05.770Z,28.9
2019-01-15T02:06:56.153Z,28.9
2019-01-15T02:07:45.673Z,28.9
2019-01-15T02:08:36.510Z,28.8
2019-01-15T02:09:26.325Z,28.7
2019-01-15T02:10:15.882Z,28.6
2019-01-15T02:11:05.838Z,28.4
2019-01-15T02:11:56.435Z,28.3
2019-01-15T02:12:47.703Z,28.2
2019-01-15T02:13:36.270Z,27.9
2019-01-15T02:14:26.367Z,27.6
2019-01-15T02:15:16.397Z,27.5
2019-01-15T02:16:06.542Z,27.4
2019-01-15T02:16:56.589Z,27.3
2019-01-15T02:17:46.609Z,27.3
2019-01-15T02:18:36.622Z,27.3
2019-01-15T02:19:27.017Z,27.3
2019-01-15T02:20:17.309Z,27.3
2019-01-15T02:21:06.543Z,27.4
2019-01-15T02:21:57.124Z,27.6
2019-01-15T02:22:46.646Z,27.8
2019-01-15T02:23:36.686Z,27.8
2019-01-15T02:24:27.564Z,27.6
2019-01-15T02:25:17.700Z,27.4
2019-01-15T02:26:06.942Z,27.4
2019-01-15T02:26:58.952Z,27.5
2019-01-15T02:27:46.707Z,27.6
2019-01-15T02:28:37.628Z,27.4
2019-01-15T02:29:26.534Z,27.4
2019-01-15T02:30:17.844Z,27.3
2019-01-15T02:31:07.802Z,27.1
2019-01-15T02:31:57.119Z,27
2019-01-15T02:32:47.456Z,27.1
2019-01-15T02:33:37.478Z,27.3
2019-01-15T02:34:27.583Z,27.4
2019-01-15T02:35:16.661Z,27.6
2019-01-15T02:36:07.914Z,27.7
2019-01-15T02:37:47.764Z,27.9
2019-01-15T02:38:38.028Z,28
2019-01-15T02:39:28.348Z,28.1
2019-01-15T02:40:18.807Z,28.2
2019-01-15T02:41:08.693Z,28.3
2019-01-15T02:41:58.255Z,28.3
2019-01-15T02:42:57.993Z,28.4
2019-01-15T02:43:38.130Z,28.4
2019-01-15T02:44:28.593Z,28.5
2019-01-15T02:45:18.317Z,28.6
2019-01-15T02:46:09.123Z,28.6
2019-01-15T02:46:57.541Z,28.6
2019-01-15T02:47:48.680Z,28.7
2019-01-15T02:48:38.441Z,28.8
2019-01-15T02:49:28.650Z,28.8
2019-01-15T02:50:18.921Z,28.8
2019-01-15T02:51:09.173Z,28.8
2019-01-15T02:51:59.264Z,28.8
2019-01-15T02:52:49.071Z,28.8
2019-01-15T02:53:39.049Z,28.8
2019-01-15T02:54:28.635Z,28.7
2019-01-15T02:55:19.485Z,28.6
2019-01-15T02:56:09.284Z,28.4
2019-01-15T02:56:59.640Z,28.3
2019-01-15T02:57:49.010Z,28.1
2019-01-15T02:58:38.907Z,27.9
2019-01-15T02:59:29.494Z,27.6
2019-01-15T03:00:19.887Z,27.6
2019-01-15T03:01:09.843Z,27.4
2019-01-15T03:01:59.394Z,27.3
2019-01-15T03:02:50.004Z,27.3
2019-01-15T03:03:39.971Z,27.3
2019-01-15T03:04:30.041Z,27.3
2019-01-15T03:05:19.860Z,27.3
2019-01-15T03:09:43.244Z,27.9
2019-01-15T03:10:32.481Z,28
2019-01-15T03:11:22.353Z,28.1
2019-01-15T03:12:12.385Z,28.2
2019-01-15T03:13:06.583Z,28.2
2019-01-15T03:13:53.254Z,28.3
2019-01-15T03:14:42.518Z,28.4
2019-01-15T03:15:33.133Z,28.4
2019-01-15T03:16:24.173Z,28.4
2019-01-15T03:17:14.237Z,28.5
2019-01-15T03:18:04.201Z,28.5
2019-01-15T03:18:55.665Z,28.6
2019-01-15T03:19:43.613Z,28.6
2019-01-15T03:20:33.623Z,28.6
2019-01-15T03:21:24.530Z,28.7
2019-01-15T03:22:14.571Z,28.8
2019-01-15T03:23:04.483Z,28.8
2019-01-15T03:23:54.123Z,28.8
2019-01-15T03:24:43.933Z,28.8
2019-01-15T03:25:34.383Z,28.9
2019-01-15T03:26:24.367Z,28.9
2019-01-15T03:27:14.125Z,28.9
2019-01-15T03:28:04.975Z,28.9
2019-01-15T03:28:53.412Z,28.8
2019-01-15T03:29:44.292Z,28.8
2019-01-15T03:30:34.567Z,28.7
2019-01-15T03:31:24.726Z,28.6
2019-01-15T03:32:15.401Z,28.4
2019-01-15T03:33:05.596Z,28.3
2019-01-15T03:33:54.909Z,28.1
2019-01-15T03:34:45.235Z,27.9
2019-01-15T03:35:34.405Z,27.6
2019-01-15T03:36:24.692Z,27.5
2019-01-15T03:37:15.552Z,27.4
2019-01-15T03:38:05.474Z,27.3
2019-01-15T03:38:55.424Z,27.3
2019-01-15T03:39:44.876Z,27.3
2019-01-15T03:40:35.404Z,27.3
2019-01-15T03:41:24.822Z,27.3
2019-01-15T03:42:15.387Z,27.4
2019-01-15T03:43:14.917Z,27.6
2019-01-15T03:43:55.654Z,27.7
2019-01-15T03:45:36.215Z,27.9
2019-01-15T03:46:25.356Z,28
2019-01-15T03:47:14.886Z,28.1
2019-01-15T03:48:05.854Z,28.1
2019-01-15T03:48:55.634Z,28.2
2019-01-15T03:49:45.854Z,28.3
2019-01-15T03:50:35.741Z,28.3
2019-01-15T03:51:25.768Z,28.4
2019-01-15T03:52:15.543Z,28.4
2019-01-15T03:53:06.713Z,28.4
2019-01-15T03:53:56.487Z,28.3
2019-01-15T03:54:46.765Z,28.1
2019-01-15T03:55:36.326Z,27.9
2019-01-15T03:56:26.068Z,28.1
2019-01-15T03:57:16.346Z,27.9
2019-01-15T03:58:05.919Z,27.9
2019-01-15T03:58:56.490Z,27.8
2019-01-15T03:59:46.149Z,27.5
2019-01-15T04:00:36.825Z,27.4
2019-01-15T04:01:27.031Z,27.5
2019-01-15T04:02:17.284Z,27.6
2019-01-15T04:03:06.495Z,27.8
2019-01-15T04:03:56.605Z,27.9
2019-01-15T04:04:46.926Z,27.9
2019-01-15T04:05:37.230Z,28.1
2019-01-15T04:06:27.385Z,28.1
2019-01-15T04:07:17.326Z,28.2
2019-01-15T04:08:07.147Z,28.3
2019-01-15T04:08:57.805Z,28.3
2019-01-15T04:09:46.704Z,28.4
2019-01-15T04:10:37.095Z,28.4
2019-01-15T04:11:27.873Z,28.5
2019-01-15T04:12:17.418Z,28.5
2019-01-15T04:13:15.062Z,28.6
2019-01-15T04:13:57.587Z,28.6
2019-01-15T04:14:47.839Z,28.6
2019-01-15T04:15:37.680Z,28.7
2019-01-15T04:16:27.960Z,28.7
2019-01-15T04:17:18.067Z,28.8
2019-01-15T04:18:08.399Z,28.8
2019-01-15T04:18:59.897Z,28.8
2019-01-15T04:19:48.235Z,28.8
2019-01-15T04:20:38.288Z,28.9
2019-01-15T04:21:27.464Z,28.9
2019-01-15T04:22:17.254Z,28.9
2019-01-15T04:23:07.917Z,28.9
2019-01-15T04:23:58.776Z,28.9
2019-01-15T04:24:48.226Z,28.8
2019-01-15T04:25:40.014Z,28.8
2019-01-15T04:26:27.615Z,28.6
2019-01-15T04:27:18.656Z,28.4
2019-01-15T04:28:07.916Z,28.3
2019-01-15T04:28:57.961Z,28.2
2019-01-15T04:29:49.129Z,28
2019-01-15T04:30:39.089Z,27.7
2019-01-15T04:31:29.103Z,27.5
2019-01-15T04:32:18.796Z,27.5
2019-01-15T04:33:09.141Z,27.4
2019-01-15T04:33:58.679Z,27.3
2019-01-15T04:34:50.948Z,27.3
2019-01-15T04:35:38.663Z,27.3
2019-01-15T04:36:29.033Z,27.3
2019-01-15T04:37:19.431Z,27.4
2019-01-15T04:38:09.442Z,27.6
2019-01-15T04:38:59.764Z,27.7
2019-01-15T04:40:39.370Z,27.9
2019-01-15T04:41:29.488Z,28
2019-01-15T04:42:19.686Z,28.1
2019-01-15T04:43:09.483Z,28.1
2019-01-15T04:43:58.896Z,28.2
2019-01-15T04:44:49.598Z,28.3
2019-01-15T04:45:39.926Z,28.3
2019-01-15T04:46:30.359Z,28.4
2019-01-15T04:47:19.220Z,28.4
2019-01-15T04:48:10.047Z,28.4
2019-01-15T04:49:00.174Z,28.5
2019-01-15T04:49:49.410Z,28.6
2019-01-15T04:50:39.949Z,28.6
2019-01-15T04:51:30.340Z,28.6
2019-01-15T04:52:19.857Z,28.7
2019-01-15T04:53:10.362Z,28.7
2019-01-15T04:54:00.222Z,28.8
2019-01-15T04:54:50.550Z,28.8
2019-01-15T04:55:40.355Z,28.8
2019-01-15T04:56:30.119Z,28.9
2019-01-15T04:57:20.794Z,28.9
2019-01-15T04:58:10.292Z,28.9
2019-01-15T04:58:59.490Z,28.9
2019-01-15T04:59:50.137Z,28.9
2019-01-15T05:00:40.690Z,28.9
2019-01-15T05:01:30.738Z,28.9
2019-01-15T05:02:21.411Z,28.8
2019-01-15T05:03:11.265Z,28.6
2019-01-15T05:04:00.657Z,28.5
2019-01-15T05:04:50.667Z,28.4
2019-01-15T05:05:41.009Z,28.3
2019-01-15T05:06:30.249Z,28.2
2019-01-15T05:07:21.122Z,27.9
2019-01-15T05:08:10.967Z,27.7
2019-01-15T05:09:01.187Z,27.6
2019-01-15T05:09:50.796Z,27.4
2019-01-15T05:10:41.677Z,27.3
2019-01-15T05:11:31.149Z,27.3
2019-01-15T05:12:21.493Z,27.3
2019-01-15T05:13:11.574Z,27.3
2019-01-15T05:14:01.879Z,27.4
2019-01-15T05:14:50.783Z,27.6
2019-01-15T05:15:41.701Z,27.7
2019-01-15T05:17:21.498Z,27.9
2019-01-15T05:18:11.310Z,28
2019-01-15T05:19:01.353Z,28.1
2019-01-15T05:19:50.896Z,28.2
2019-01-15T05:20:41.596Z,28.2
2019-01-15T05:21:31.907Z,28.2
2019-01-15T05:22:22.880Z,28
2019-01-15T05:23:12.498Z,27.8
2019-01-15T05:24:02.528Z,27.5
2019-01-15T05:24:52.098Z,27.4
2019-01-15T05:25:41.361Z,27.4
2019-01-15T05:26:34.379Z,27.6
2019-01-15T05:27:22.015Z,27.6
2019-01-15T05:28:12.080Z,27.4
2019-01-15T05:29:01.325Z,27.4
2019-01-15T05:29:52.793Z,27.3
2019-01-15T05:30:43.038Z,27.1
2019-01-15T05:31:33.070Z,27
2019-01-15T05:32:23.148Z,27.1
2019-01-15T05:33:12.923Z,27.3
2019-01-15T05:34:02.973Z,27.4
2019-01-15T05:34:52.974Z,27.5
2019-01-15T05:35:42.922Z,27.6
2019-01-15T05:36:33.342Z,27.8
2019-01-15T05:38:13.155Z,27.9
2019-01-15T05:39:03.855Z,27.9
2019-01-15T05:39:53.435Z,28.1
2019-01-15T05:40:42.397Z,28.1
2019-01-15T05:41:32.727Z,28.1
2019-01-15T05:42:23.148Z,28.2
2019-01-15T05:43:13.114Z,28.3
2019-01-15T05:44:02.686Z,28.3
2019-01-15T05:44:53.184Z,28.4
2019-01-15T05:45:43.276Z,28.4
2019-01-15T05:46:33.027Z,28.4
2019-01-15T05:47:23.321Z,28.5
2019-01-15T05:48:14.184Z,28.5
2019-01-15T05:49:04.174Z,28.6
2019-01-15T05:49:55.396Z,28.6
2019-01-15T05:50:43.789Z,28.6
2019-01-15T05:51:34.379Z,28.7
2019-01-15T05:52:23.831Z,28.7
2019-01-15T05:53:13.924Z,28.7
2019-01-15T05:54:04.325Z,28.7
2019-01-15T05:54:54.332Z,28.8
2019-01-15T05:55:44.723Z,28.8
2019-01-15T05:56:34.341Z,28.8
2019-01-15T05:57:23.911Z,28.7
2019-01-15T05:58:14.823Z,28.6
2019-01-15T05:59:04.348Z,28.5
2019-01-15T05:59:53.566Z,28.4
2019-01-15T06:00:44.493Z,28.3
2019-01-15T06:01:33.721Z,28.2
2019-01-15T06:02:24.483Z,27.9
2019-01-15T06:03:14.885Z,27.6
2019-01-15T06:04:04.610Z,27.4
2019-01-15T06:06:53.212Z,27.2
2019-01-15T06:07:44.425Z,27.2
2019-01-15T06:08:34.131Z,27.2
2019-01-15T06:09:23.110Z,27.3
2019-01-15T06:10:12.617Z,27.3
2019-01-15T06:11:03.243Z,27.5
2019-01-15T06:11:53.305Z,27.6
2019-01-15T06:12:42.897Z,27.7
2019-01-15T06:13:33.407Z,27.8
2019-01-15T06:14:23.252Z,27.9
2019-01-15T06:15:13.807Z,27.9
2019-01-15T06:16:03.564Z,28
2019-01-15T06:16:53.899Z,28.1
2019-01-15T06:17:42.849Z,28.1
2019-01-15T06:18:33.702Z,28.2
2019-01-15T06:19:23.582Z,28.3
2019-01-15T06:20:13.344Z,28.3
2019-01-15T06:21:03.377Z,28.3
2019-01-15T06:21:54.214Z,28.3
2019-01-15T06:22:43.444Z,28.4
2019-01-15T06:23:33.769Z,28.4
2019-01-15T06:24:24.435Z,28.5
2019-01-15T06:25:14.688Z,28.5
2019-01-15T06:26:04.225Z,28.6
2019-01-15T06:26:54.649Z,28.6
2019-01-15T06:27:44.083Z,28.6
2019-01-15T06:28:35.011Z,28.6
2019-01-15T06:29:24.703Z,28.6
2019-01-15T06:30:14.796Z,28.6
2019-01-15T06:31:03.506Z,28.6
2019-01-15T06:31:54.073Z,28.6
2019-01-15T06:32:45.003Z,28.5
2019-01-15T06:33:34.646Z,28.4
2019-01-15T06:34:24.931Z,28.3
2019-01-15T06:35:15.189Z,28.2
2019-01-15T06:36:05.316Z,28.1
2019-01-15T06:37:45.443Z,27.6
2019-01-15T06:38:35.361Z,27.4
2019-01-15T06:39:24.381Z,27.2
2019-01-15T06:40:14.983Z,26.9
2019-01-15T06:41:05.848Z,27
2019-01-15T06:41:54.763Z,26.8
2019-01-15T06:42:45.134Z,26.8
2019-01-15T06:43:35.212Z,26.9
2019-01-15T06:44:25.990Z,26.9
2019-01-15T06:45:15.493Z,26.9
2019-01-15T06:46:05.588Z,27
2019-01-15T06:46:55.350Z,27.1
2019-01-15T06:47:45.995Z,27.3
2019-01-15T06:48:35.237Z,27.4
2019-01-15T06:49:26.360Z,27.5
2019-01-15T06:50:15.391Z,27.6
2019-01-15T06:51:05.433Z,27.7
2019-01-15T06:52:46.014Z,27.9
2019-01-15T06:53:36.358Z,27.9
2019-01-15T06:54:26.212Z,27.9
2019-01-15T06:55:16.188Z,27.6
2019-01-15T06:56:06.512Z,27.4
2019-01-15T06:56:56.292Z,27.3
2019-01-15T06:57:46.382Z,27.1
2019-01-15T06:58:36.969Z,27.3
2019-01-15T06:59:26.507Z,27.4
2019-01-15T07:00:16.087Z,27.3
2019-01-15T07:01:06.642Z,27.2
2019-01-15T07:01:56.684Z,27.1
2019-01-15T07:02:45.637Z,26.9
2019-01-15T07:03:36.419Z,26.8
2019-01-15T07:04:27.061Z,26.9
2019-01-15T07:06:52.645Z,27.3
2019-01-15T07:07:43.226Z,27.4
2019-01-15T07:08:32.239Z,27.6
2019-01-15T07:09:23.326Z,27.6
2019-01-15T07:10:12.831Z,27.7
2019-01-15T07:11:53.488Z,27.9
2019-01-15T07:12:43.571Z,27.9
2019-01-15T07:13:33.618Z,28
2019-01-15T07:14:23.956Z,28
2019-01-15T07:15:14.060Z,28
2019-01-15T07:16:03.503Z,28
2019-01-15T07:16:53.359Z,27.9
2019-01-15T07:17:42.840Z,27.9
2019-01-15T07:18:32.903Z,27.9
2019-01-15T07:19:22.658Z,27.9
2019-01-15T07:21:04.920Z,27.8
2019-01-15T07:21:54.428Z,27.7
2019-01-15T07:22:44.295Z,27.6
2019-01-15T07:23:34.548Z,27.3
2019-01-15T07:24:24.068Z,27
2019-01-15T07:25:14.385Z,26.9
2019-01-15T07:26:04.724Z,26.9
2019-01-15T07:26:53.975Z,26.8
2019-01-15T07:27:44.018Z,26.6
2019-01-15T07:28:33.845Z,26.6
2019-01-15T07:29:23.827Z,26.5
2019-01-15T07:30:14.485Z,26.5
2019-01-15T07:31:04.242Z,26.7
2019-01-15T07:31:54.602Z,26.9
2019-01-15T07:32:44.913Z,27.1
2019-01-15T07:33:35.291Z,27.3
2019-01-15T07:34:24.487Z,27.4
2019-01-15T07:35:15.147Z,27.4
2019-01-15T07:36:05.139Z,27.6
2019-01-15T07:36:54.594Z,27.7
2019-01-15T07:37:44.959Z,27.8
2019-01-15T07:39:24.795Z,27.9
2019-01-15T07:44:25.578Z,27.8
2019-01-15T07:45:16.001Z,27.7
2019-01-15T07:46:04.402Z,27.6
2019-01-15T07:46:57.223Z,27.6
2019-01-15T07:47:46.067Z,27.5
2019-01-15T07:48:35.887Z,27.2
2019-01-15T07:49:25.333Z,26.8
2019-01-15T07:50:15.176Z,26.6
2019-01-15T07:51:05.805Z,26.3
2019-01-15T07:51:55.487Z,26.1
2019-01-15T07:52:45.526Z,26.3
2019-01-15T07:53:36.060Z,26.4
2019-01-15T07:54:26.693Z,26.4
2019-01-15T07:55:17.894Z,26.7
2019-01-15T07:56:06.525Z,26.4
2019-01-15T07:56:55.723Z,26.3
2019-01-15T07:57:46.098Z,26.3
2019-01-15T07:58:36.921Z,26.2
2019-01-15T07:59:26.478Z,26.3
2019-01-15T08:00:16.755Z,26.5
2019-01-15T08:01:08.083Z,26.8
2019-01-15T08:01:56.604Z,26.9
2019-01-15T08:02:46.715Z,27.1
2019-01-15T08:03:38.188Z,27.2
2019-01-15T08:04:26.455Z,27.3
2019-01-15T08:05:16.534Z,27.4
2019-01-15T08:06:07.407Z,27.4
2019-01-15T08:06:56.921Z,27.6
2019-01-15T08:07:47.276Z,27.6
2019-01-15T08:08:37.071Z,27.7
2019-01-15T08:09:27.470Z,27.8
2019-01-15T08:10:17.160Z,27.8
2019-01-15T08:11:08.396Z,27.7
2019-01-15T08:11:56.535Z,27.7
2019-01-15T08:12:46.582Z,27.8
2019-01-15T08:13:37.947Z,27.8
2019-01-15T08:14:27.165Z,27.7
2019-01-15T08:15:18.056Z,27.6
2019-01-15T08:16:07.317Z,27.6
2019-01-15T08:16:57.404Z,27.5
2019-01-15T08:17:47.099Z,27.4
2019-01-15T08:18:37.304Z,27.2
2019-01-15T08:19:27.551Z,26.8
2019-01-15T08:20:18.158Z,26.6
2019-01-15T08:21:07.142Z,26.4
2019-01-15T08:21:59.579Z,26.1
2019-01-15T08:22:48.000Z,26.1
2019-01-15T08:23:38.051Z,26.3
2019-01-15T08:24:27.917Z,26.3
2019-01-15T08:25:18.554Z,26.3
2019-01-15T08:26:08.021Z,26.4
2019-01-15T08:26:58.047Z,26.1
2019-01-15T08:27:48.924Z,26.1
2019-01-15T08:28:38.961Z,26.1
2019-01-15T08:29:29.006Z,26.1
2019-01-15T08:30:17.933Z,26.3
2019-01-15T08:31:07.551Z,26.6
2019-01-15T08:31:58.934Z,26.7
2019-01-15T08:32:48.436Z,26.9
2019-01-15T08:33:39.306Z,27.1
2019-01-15T08:34:28.582Z,27.1
2019-01-15T08:35:19.387Z,27.3
2019-01-15T08:36:08.946Z,27.3
2019-01-15T08:36:59.294Z,27.4
2019-01-15T08:37:49.003Z,27.6
2019-01-15T08:38:38.750Z,27.6
2019-01-15T08:39:28.085Z,27.4
2019-01-15T08:40:18.943Z,27.1
2019-01-15T08:41:09.483Z,26.8
2019-01-15T08:41:59.626Z,26.7
2019-01-15T08:42:49.736Z,26.8
2019-01-15T08:43:39.955Z,26.9
2019-01-15T08:44:29.920Z,27
2019-01-15T08:45:19.859Z,27.1
2019-01-15T08:46:09.908Z,27.1
2019-01-15T08:46:58.852Z,26.8
2019-01-15T08:47:51.239Z,26.7
2019-01-15T08:48:39.460Z,26.6
2019-01-15T08:49:30.080Z,26.5
2019-01-15T08:50:20.115Z,26.6
2019-01-15T08:51:09.610Z,26.8
2019-01-15T08:52:00.224Z,26.9
2019-01-15T08:52:49.801Z,27.1
2019-01-15T08:53:39.317Z,27.3
2019-01-15T08:54:32.205Z,27.3
2019-01-15T08:55:20.168Z,27.4
2019-01-15T08:56:10.527Z,27.5
2019-01-15T08:57:00.330Z,27.6
2019-01-15T08:57:50.118Z,27.7
2019-01-15T08:58:40.687Z,27.8
2019-01-15T08:59:30.777Z,27.8
2019-01-15T09:00:20.002Z,27.7
2019-01-15T09:01:10.126Z,27.8
2019-01-15T09:02:00.902Z,27.8
2019-01-15T09:02:51.319Z,27.8
2019-01-15T09:03:41.357Z,27.8
2019-01-15T09:04:31.092Z,27.7
2019-01-15T09:05:20.588Z,27.6
2019-01-15T09:06:10.679Z,27.6
2019-01-15T09:07:01.774Z,27.5
2019-01-15T09:07:51.019Z,27.4
2019-01-15T09:08:41.363Z,27
2019-01-15T09:09:30.846Z,26.7
2019-01-15T09:10:21.344Z,26.6
2019-01-15T09:11:12.241Z,26.6
2019-01-15T09:12:00.905Z,27
2019-01-15T09:12:50.627Z,27.1
2019-01-15T09:13:41.703Z,26.6
2019-01-15T09:14:37.722Z,26.3
2019-01-15T09:15:22.774Z,26.3
2019-01-15T09:16:11.088Z,26.3
2019-01-15T09:17:10.769Z,26.5
2019-01-15T09:17:51.798Z,26.8
2019-01-15T09:18:41.286Z,26.9
2019-01-15T09:19:31.639Z,27.1
2019-01-15T09:20:23.460Z,27.2
2019-01-15T09:21:12.094Z,27.3
2019-01-15T09:22:01.547Z,27.4
2019-01-15T09:22:52.163Z,27.4
2019-01-15T09:23:42.718Z,27.5
2019-01-15T09:24:32.718Z,27.6
2019-01-15T09:25:22.371Z,27.7
2019-01-15T09:26:13.083Z,27.7
2019-01-15T09:27:02.880Z,27.7
2019-01-15T09:27:53.075Z,27.6
2019-01-15T09:28:42.430Z,27.7
2019-01-15T09:29:32.285Z,27.7
2019-01-15T09:30:23.192Z,27.7
2019-01-15T09:31:13.147Z,27.6
2019-01-15T09:32:03.260Z,27.6
2019-01-15T09:32:52.802Z,27.5
2019-01-15T09:33:43.102Z,27.4
2019-01-15T09:34:32.822Z,27.4
2019-01-15T09:35:22.902Z,27.2
2019-01-15T09:36:12.951Z,26.7
2019-01-15T09:37:03.057Z,26.6
2019-01-15T09:37:53.070Z,26.5
2019-01-15T09:38:43.714Z,26.7
2019-01-15T09:39:32.599Z,27.1
2019-01-15T09:40:23.866Z,26.6
2019-01-15T09:41:13.547Z,26.3
2019-01-15T09:42:03.355Z,26.3
2019-01-15T09:42:52.697Z,26.2
2019-01-15T09:43:43.160Z,26.4
2019-01-15T09:44:41.335Z,26.6
2019-01-15T09:45:24.249Z,26.9
2019-01-15T09:46:13.231Z,27
2019-01-15T09:47:03.654Z,27.1
2019-01-15T09:47:54.124Z,27.2
2019-01-15T09:48:43.863Z,27.3
2019-01-15T09:49:33.834Z,27.4
2019-01-15T09:50:25.906Z,27.5
2019-01-15T09:51:14.014Z,27.6
2019-01-15T09:52:04.306Z,27.6
2019-01-15T09:52:54.074Z,27.7
2019-01-15T09:53:43.571Z,27.8
2019-01-15T09:54:34.169Z,27.8
2019-01-15T09:55:24.811Z,27.7
2019-01-15T09:56:14.008Z,27.8
2019-01-15T09:57:03.850Z,27.8
2019-01-15T09:57:54.414Z,27.7
2019-01-15T09:58:44.741Z,27.7
2019-01-15T09:59:34.797Z,27.6
2019-01-15T10:00:24.851Z,27.6
2019-01-15T10:01:14.898Z,27.5
2019-01-15T10:02:05.012Z,27.4
2019-01-15T10:02:54.757Z,27
2019-01-15T10:03:45.321Z,26.7
2019-01-15T10:04:35.229Z,26.4
2019-01-15T10:05:24.951Z,26.3
2019-01-15T10:07:52.755Z,26.1
2019-01-15T10:08:42.840Z,26.3
2019-01-15T10:09:32.890Z,26.5
2019-01-15T10:10:22.518Z,27.1
2019-01-15T10:11:12.660Z,26.5
2019-01-15T10:12:03.572Z,26.2
2019-01-15T10:12:53.382Z,26.1
2019-01-15T10:13:43.505Z,26.1
2019-01-15T10:14:37.435Z,26.2
2019-01-15T10:15:22.405Z,26.4
2019-01-15T10:16:15.655Z,26.6
2019-01-15T10:17:03.955Z,26.8
2019-01-15T10:17:52.910Z,27
2019-01-15T10:18:44.017Z,27.2
2019-01-15T10:19:33.242Z,27.2
2019-01-15T10:20:24.197Z,26.9
2019-01-15T10:21:14.186Z,26.8
2019-01-15T10:22:03.992Z,26.5
2019-01-15T10:22:54.404Z,26.4
2019-01-15T10:23:43.624Z,26.6
2019-01-15T10:24:33.902Z,26.7
2019-01-15T10:25:24.214Z,26.8
2019-01-15T10:26:14.017Z,26.9
2019-01-15T10:27:04.594Z,27.4
2019-01-15T10:27:54.427Z,27.2
2019-01-15T10:28:44.209Z,26.8
2019-01-15T10:29:33.422Z,26.5
2019-01-15T10:30:24.541Z,26.3
2019-01-15T10:31:14.599Z,26.3
2019-01-15T10:32:04.379Z,26.6
2019-01-15T10:32:53.374Z,26.8
2019-01-15T10:33:46.086Z,26.9
2019-01-15T10:34:34.809Z,27.1
2019-01-15T10:35:24.933Z,27.2
2019-01-15T10:36:14.911Z,27.3
2019-01-15T10:37:04.128Z,27.4
2019-01-15T10:37:54.186Z,27.4
2019-01-15T10:38:44.546Z,27.6
2019-01-15T10:39:35.158Z,27.6
2019-01-15T10:40:24.675Z,27.6
2019-01-15T10:41:15.565Z,27.6
2019-01-15T10:42:05.036Z,27.6
2019-01-15T10:42:54.316Z,27.6
2019-01-15T10:43:45.443Z,27.6
2019-01-15T10:44:35.755Z,27.6
2019-01-15T10:45:25.353Z,27.6
2019-01-15T10:46:15.595Z,27.5
2019-01-15T10:47:05.513Z,27.4
2019-01-15T10:47:55.443Z,27.4
2019-01-15T10:48:45.236Z,27.3
2019-01-15T10:49:35.563Z,26.9
2019-01-15T10:50:25.333Z,26.6
2019-01-15T10:51:15.731Z,26.4
2019-01-15T10:52:06.027Z,26.5
2019-01-15T10:52:56.077Z,27
2019-01-15T10:53:46.348Z,26.5
2019-01-15T10:54:35.872Z,26.3
2019-01-15T10:55:25.920Z,26.2
2019-01-15T10:56:15.785Z,26.1
2019-01-15T10:57:05.604Z,26.3
2019-01-15T10:57:55.623Z,26.5
2019-01-15T10:58:46.432Z,26.7
2019-01-15T10:59:36.514Z,26.9
2019-01-15T11:00:25.804Z,27.1
2019-01-15T11:01:16.609Z,27.1
2019-01-15T11:02:05.819Z,27.3
2019-01-15T11:02:56.452Z,27.3
2019-01-15T11:03:46.812Z,27.4
2019-01-15T11:04:36.847Z,27.5
2019-01-15T11:05:26.168Z,27.6
2019-01-15T11:06:16.114Z,27.6
2019-01-15T11:07:07.012Z,27.7
2019-01-15T11:07:57.031Z,27.7
2019-01-15T11:08:47.187Z,27.7
2019-01-15T11:09:36.181Z,27.7
2019-01-15T11:10:26.176Z,27.7
2019-01-15T11:11:17.063Z,27.7
2019-01-15T11:12:07.118Z,27.7
2019-01-15T11:12:56.909Z,27.6
2019-01-15T11:13:46.345Z,27.6
2019-01-15T11:14:37.612Z,27.5
2019-01-15T11:15:27.268Z,27.4
2019-01-15T11:16:17.922Z,27.3
2019-01-15T11:17:06.926Z,26.8
2019-01-15T11:17:57.294Z,26.6
2019-01-15T11:18:48.521Z,26.6
2019-01-15T11:19:37.358Z,26.9
2019-01-15T11:20:27.611Z,27.4
2019-01-15T11:21:18.283Z,26.7
2019-01-15T11:22:07.168Z,26.4
2019-01-15T11:22:58.056Z,26.3
2019-01-15T11:23:47.553Z,26.3
2019-01-15T11:24:37.891Z,26.4
2019-01-15T11:25:27.975Z,26.6
2019-01-15T11:26:17.838Z,26.8
2019-01-15T11:27:08.333Z,27
2019-01-15T11:27:58.445Z,27.1
2019-01-15T11:28:48.793Z,27.3
2019-01-15T11:29:38.777Z,27.3